sensor_id;sensor_type;location;lat;lon;timestamp;P1;durP1;ratioP1;P2;durP2;ratioP2
14992;SDS011;7592;51.088;13.732;2023-12-20T00:04:16;2.40;;;2.30;;
14992;SDS011;7592;51.088;13.732;2023-12-20T00:09:09;2.90;;;2.67;;
14992;SDS011;7592;51.088;13.732;2023-12-20T00:14:01;2.33;;;2.20;;
14992;SDS011;7592;51.088;13.732;2023-12-20T00:18:53;2.93;;;2.73;;
14992;SDS011;7592;51.088;13.732;2023-12-20T00:23:45;2.27;;;2.17;;
14992;SDS011;7592;51.088;13.732;2023-12-20T00:28:37;2.57;;;2.30;;
14992;SDS011;7592;51.088;13.732;2023-12-20T00:33:30;2.27;;;2.13;;
14992;SDS011;7592;51.088;13.732;2023-12-20T00:38:22;1.93;;;1.83;;
14992;SDS011;7592;51.088;13.732;2023-12-20T00:43:14;1.73;;;1.63;;
14992;SDS011;7592;51.088;13.732;2023-12-20T00:48:07;2.13;;;1.87;;
14992;SDS011;7592;51.088;13.732;2023-12-20T00:52:59;1.83;;;1.73;;
14992;SDS011;7592;51.088;13.732;2023-12-20T00:57:51;1.70;;;1.60;;
14992;SDS011;7592;51.088;13.732;2023-12-20T01:02:45;1.63;;;1.53;;
14992;SDS011;7592;51.088;13.732;2023-12-20T01:07:40;1.87;;;1.77;;
14992;SDS011;7592;51.088;13.732;2023-12-20T01:12:33;2.80;;;1.10;;
14992;SDS011;7592;51.088;13.732;2023-12-20T01:17:25;1.40;;;1.30;;
14992;SDS011;7592;51.088;13.732;2023-12-20T01:22:17;1.67;;;1.57;;
14992;SDS011;7592;51.088;13.732;2023-12-20T01:27:09;1.30;;;1.20;;
14992;SDS011;7592;51.088;13.732;2023-12-20T01:32:01;1.00;;;1.00;;
14992;SDS011;7592;51.088;13.732;2023-12-20T01:36:54;1.73;;;1.10;;
14992;SDS011;7592;51.088;13.732;2023-12-20T01:41:46;1.57;;;1.23;;
14992;SDS011;7592;51.088;13.732;2023-12-20T01:46:38;1.17;;;0.80;;
14992;SDS011;7592;51.088;13.732;2023-12-20T01:51:30;1.97;;;1.07;;
14992;SDS011;7592;51.088;13.732;2023-12-20T01:56:24;0.73;;;0.73;;
14992;SDS011;7592;51.088;13.732;2023-12-20T02:01:17;0.90;;;0.80;;
14992;SDS011;7592;51.088;13.732;2023-12-20T02:12:40;0.70;;;0.70;;
14992;SDS011;7592;51.088;13.732;2023-12-20T02:17:32;0.67;;;0.67;;
14992;SDS011;7592;51.088;13.732;2023-12-20T02:22:25;0.40;;;0.40;;
14992;SDS011;7592;51.088;13.732;2023-12-20T02:27:17;0.40;;;0.40;;
14992;SDS011;7592;51.088;13.732;2023-12-20T02:32:11;0.60;;;0.60;;
14992;SDS011;7592;51.088;13.732;2023-12-20T02:37:03;0.60;;;0.50;;
14992;SDS011;7592;51.088;13.732;2023-12-20T02:41:55;0.47;;;0.40;;
14992;SDS011;7592;51.088;13.732;2023-12-20T02:46:47;0.53;;;0.53;;
14992;SDS011;7592;51.088;13.732;2023-12-20T02:51:39;0.47;;;0.47;;
14992;SDS011;7592;51.088;13.732;2023-12-20T02:56:32;0.60;;;0.57;;
14992;SDS011;7592;51.088;13.732;2023-12-20T03:01:24;0.40;;;0.40;;
14992;SDS011;7592;51.088;13.732;2023-12-20T03:06:18;0.30;;;0.30;;
14992;SDS011;7592;51.088;13.732;2023-12-20T03:11:10;0.40;;;0.40;;
14992;SDS011;7592;51.088;13.732;2023-12-20T03:16:09;1.20;;;1.10;;
14992;SDS011;7592;51.088;13.732;2023-12-20T03:21:02;0.50;;;0.50;;
14992;SDS011;7592;51.088;13.732;2023-12-20T03:25:56;0.50;;;0.47;;
14992;SDS011;7592;51.088;13.732;2023-12-20T03:30:48;0.40;;;0.40;;
14992;SDS011;7592;51.088;13.732;2023-12-20T03:35:40;0.30;;;0.30;;
14992;SDS011;7592;51.088;13.732;2023-12-20T03:40:33;0.50;;;0.40;;
14992;SDS011;7592;51.088;13.732;2023-12-20T03:45:25;0.60;;;0.50;;
14992;SDS011;7592;51.088;13.732;2023-12-20T03:50:17;0.33;;;0.33;;
14992;SDS011;7592;51.088;13.732;2023-12-20T03:55:09;0.40;;;0.40;;
14992;SDS011;7592;51.088;13.732;2023-12-20T04:00:01;0.30;;;0.30;;
14992;SDS011;7592;51.088;13.732;2023-12-20T04:05:02;0.43;;;0.43;;
14992;SDS011;7592;51.088;13.732;2023-12-20T04:09:54;0.40;;;0.40;;
14992;SDS011;7592;51.088;13.732;2023-12-20T04:14:48;1.27;;;0.50;;
14992;SDS011;7592;51.088;13.732;2023-12-20T04:19:41;0.40;;;0.40;;
14992;SDS011;7592;51.088;13.732;2023-12-20T04:24:34;0.37;;;0.37;;
14992;SDS011;7592;51.088;13.732;2023-12-20T04:29:26;1.53;;;0.50;;
14992;SDS011;7592;51.088;13.732;2023-12-20T04:34:19;0.57;;;0.40;;
14992;SDS011;7592;51.088;13.732;2023-12-20T04:39:12;1.03;;;0.40;;
14992;SDS011;7592;51.088;13.732;2023-12-20T04:44:05;0.80;;;0.47;;
14992;SDS011;7592;51.088;13.732;2023-12-20T04:48:58;0.40;;;0.40;;
14992;SDS011;7592;51.088;13.732;2023-12-20T04:53:50;0.73;;;0.60;;
14992;SDS011;7592;51.088;13.732;2023-12-20T04:58:42;1.20;;;0.50;;
14992;SDS011;7592;51.088;13.732;2023-12-20T05:03:34;0.43;;;0.43;;
14992;SDS011;7592;51.088;13.732;2023-12-20T05:08:27;0.47;;;0.47;;
14992;SDS011;7592;51.088;13.732;2023-12-20T05:13:19;0.30;;;0.30;;
14992;SDS011;7592;51.088;13.732;2023-12-20T05:18:11;0.70;;;0.70;;
14992;SDS011;7592;51.088;13.732;2023-12-20T05:23:04;0.93;;;0.90;;
14992;SDS011;7592;51.088;13.732;2023-12-20T05:27:56;1.27;;;0.87;;
14992;SDS011;7592;51.088;13.732;2023-12-20T05:32:48;0.90;;;0.80;;
14992;SDS011;7592;51.088;13.732;2023-12-20T05:37:41;1.93;;;0.93;;
14992;SDS011;7592;51.088;13.732;2023-12-20T05:42:34;2.43;;;0.80;;
14992;SDS011;7592;51.088;13.732;2023-12-20T05:47:28;0.47;;;0.30;;
14992;SDS011;7592;51.088;13.732;2023-12-20T05:52:20;0.73;;;0.60;;
14992;SDS011;7592;51.088;13.732;2023-12-20T05:57:13;0.70;;;0.70;;
14992;SDS011;7592;51.088;13.732;2023-12-20T06:02:06;0.70;;;0.50;;
14992;SDS011;7592;51.088;13.732;2023-12-20T06:06:58;1.03;;;0.77;;
14992;SDS011;7592;51.088;13.732;2023-12-20T06:11:51;0.50;;;0.50;;
14992;SDS011;7592;51.088;13.732;2023-12-20T06:16:43;8.00;;;5.57;;
14992;SDS011;7592;51.088;13.732;2023-12-20T06:21:36;11.47;;;7.03;;
14992;SDS011;7592;51.088;13.732;2023-12-20T06:26:30;8.87;;;5.23;;
14992;SDS011;7592;51.088;13.732;2023-12-20T06:31:22;1.70;;;1.60;;
14992;SDS011;7592;51.088;13.732;2023-12-20T06:36:14;1.93;;;1.23;;
14992;SDS011;7592;51.088;13.732;2023-12-20T06:41:06;1.40;;;1.30;;
14992;SDS011;7592;51.088;13.732;2023-12-20T06:45:59;1.43;;;1.33;;
14992;SDS011;7592;51.088;13.732;2023-12-20T06:50:52;1.03;;;1.03;;
14992;SDS011;7592;51.088;13.732;2023-12-20T06:55:44;1.70;;;1.60;;
14992;SDS011;7592;51.088;13.732;2023-12-20T07:00:36;1.70;;;1.60;;
14992;SDS011;7592;51.088;13.732;2023-12-20T07:05:28;2.27;;;2.07;;
14992;SDS011;7592;51.088;13.732;2023-12-20T07:10:20;1.77;;;1.67;;
14992;SDS011;7592;51.088;13.732;2023-12-20T07:15:13;2.03;;;1.93;;
14992;SDS011;7592;51.088;13.732;2023-12-20T07:20:06;2.00;;;1.80;;
14992;SDS011;7592;51.088;13.732;2023-12-20T07:25:02;2.60;;;1.97;;
14992;SDS011;7592;51.088;13.732;2023-12-20T07:29:55;2.43;;;2.20;;
14992;SDS011;7592;51.088;13.732;2023-12-20T07:34:47;2.33;;;2.23;;
14992;SDS011;7592;51.088;13.732;2023-12-20T07:39:40;2.67;;;2.47;;
14992;SDS011;7592;51.088;13.732;2023-12-20T07:44:32;2.50;;;2.40;;
14992;SDS011;7592;51.088;13.732;2023-12-20T07:49:25;2.33;;;2.00;;
14992;SDS011;7592;51.088;13.732;2023-12-20T07:54:17;2.90;;;2.70;;
14992;SDS011;7592;51.088;13.732;2023-12-20T07:59:09;2.50;;;2.30;;
14992;SDS011;7592;51.088;13.732;2023-12-20T08:04:16;3.83;;;2.53;;
14992;SDS011;7592;51.088;13.732;2023-12-20T08:09:08;3.77;;;3.33;;
14992;SDS011;7592;51.088;13.732;2023-12-20T08:14:00;4.17;;;3.77;;
14992;SDS011;7592;51.088;13.732;2023-12-20T08:18:52;2.60;;;2.40;;
14992;SDS011;7592;51.088;13.732;2023-12-20T08:23:44;3.70;;;1.40;;
14992;SDS011;7592;51.088;13.732;2023-12-20T08:28:37;1.30;;;1.20;;
14992;SDS011;7592;51.088;13.732;2023-12-20T08:33:29;1.33;;;1.23;;
14992;SDS011;7592;51.088;13.732;2023-12-20T08:38:21;3.97;;;1.00;;
14992;SDS011;7592;51.088;13.732;2023-12-20T08:43:13;2.17;;;1.13;;
14992;SDS011;7592;51.088;13.732;2023-12-20T08:48:06;0.50;;;0.50;;
14992;SDS011;7592;51.088;13.732;2023-12-20T08:53:00;2.53;;;1.10;;
14992;SDS011;7592;51.088;13.732;2023-12-20T08:57:52;2.43;;;0.93;;
14992;SDS011;7592;51.088;13.732;2023-12-20T09:02:45;1.00;;;1.00;;
14992;SDS011;7592;51.088;13.732;2023-12-20T09:07:37;3.80;;;2.10;;
14992;SDS011;7592;51.088;13.732;2023-12-20T09:12:29;3.17;;;2.80;;
14992;SDS011;7592;51.088;13.732;2023-12-20T09:17:21;6.13;;;4.00;;
14992;SDS011;7592;51.088;13.732;2023-12-20T09:22:14;3.20;;;0.83;;
14992;SDS011;7592;51.088;13.732;2023-12-20T09:27:06;2.03;;;0.73;;
14992;SDS011;7592;51.088;13.732;2023-12-20T09:31:59;4.17;;;1.03;;
14992;SDS011;7592;51.088;13.732;2023-12-20T09:36:51;1.43;;;0.70;;
14992;SDS011;7592;51.088;13.732;2023-12-20T09:41:44;2.30;;;0.93;;
14992;SDS011;7592;51.088;13.732;2023-12-20T09:46:37;2.93;;;1.00;;
14992;SDS011;7592;51.088;13.732;2023-12-20T09:51:34;2.10;;;0.83;;
14992;SDS011;7592;51.088;13.732;2023-12-20T09:56:27;1.97;;;0.80;;
14992;SDS011;7592;51.088;13.732;2023-12-20T10:01:20;3.40;;;0.80;;
14992;SDS011;7592;51.088;13.732;2023-12-20T10:06:13;1.90;;;0.83;;
14992;SDS011;7592;51.088;13.732;2023-12-20T10:11:05;1.23;;;0.57;;
14992;SDS011;7592;51.088;13.732;2023-12-20T10:15:57;1.93;;;0.80;;
14992;SDS011;7592;51.088;13.732;2023-12-20T10:20:51;3.13;;;0.70;;
14992;SDS011;7592;51.088;13.732;2023-12-20T10:25:55;1.83;;;0.77;;
14992;SDS011;7592;51.088;13.732;2023-12-20T10:30:51;2.83;;;0.80;;
14992;SDS011;7592;51.088;13.732;2023-12-20T10:35:43;2.73;;;0.90;;
14992;SDS011;7592;51.088;13.732;2023-12-20T10:40:38;1.60;;;0.77;;
14992;SDS011;7592;51.088;13.732;2023-12-20T10:45:30;2.90;;;0.90;;
14992;SDS011;7592;51.088;13.732;2023-12-20T10:50:23;3.90;;;1.00;;
14992;SDS011;7592;51.088;13.732;2023-12-20T10:55:16;2.50;;;1.17;;
14992;SDS011;7592;51.088;13.732;2023-12-20T11:00:08;4.07;;;1.83;;
14992;SDS011;7592;51.088;13.732;2023-12-20T11:05:06;2.20;;;0.73;;
14992;SDS011;7592;51.088;13.732;2023-12-20T11:15:05;1.37;;;1.00;;
14992;SDS011;7592;51.088;13.732;2023-12-20T11:24:53;2.17;;;1.10;;
14992;SDS011;7592;51.088;13.732;2023-12-20T11:29:53;5.53;;;1.13;;
14992;SDS011;7592;51.088;13.732;2023-12-20T11:34:48;2.93;;;1.10;;
14992;SDS011;7592;51.088;13.732;2023-12-20T11:39:42;3.30;;;1.20;;
14992;SDS011;7592;51.088;13.732;2023-12-20T11:44:36;3.33;;;1.90;;
14992;SDS011;7592;51.088;13.732;2023-12-20T11:49:28;7.67;;;3.77;;
14992;SDS011;7592;51.088;13.732;2023-12-20T11:54:23;8.80;;;3.77;;
14992;SDS011;7592;51.088;13.732;2023-12-20T11:59:15;10.90;;;4.37;;
14992;SDS011;7592;51.088;13.732;2023-12-20T12:04:15;3.77;;;1.00;;
14992;SDS011;7592;51.088;13.732;2023-12-20T12:09:09;2.60;;;1.47;;
14992;SDS011;7592;51.088;13.732;2023-12-20T12:14:01;4.60;;;1.10;;
14992;SDS011;7592;51.088;13.732;2023-12-20T12:18:57;1.67;;;0.77;;
14992;SDS011;7592;51.088;13.732;2023-12-20T12:23:50;1.60;;;1.00;;
14992;SDS011;7592;51.088;13.732;2023-12-20T12:28:42;4.07;;;1.23;;
14992;SDS011;7592;51.088;13.732;2023-12-20T12:33:34;2.93;;;1.60;;
14992;SDS011;7592;51.088;13.732;2023-12-20T12:38:27;4.40;;;0.97;;
14992;SDS011;7592;51.088;13.732;2023-12-20T12:43:19;2.23;;;1.20;;
14992;SDS011;7592;51.088;13.732;2023-12-20T12:48:11;3.17;;;1.23;;
14992;SDS011;7592;51.088;13.732;2023-12-20T12:53:04;3.57;;;1.40;;
14992;SDS011;7592;51.088;13.732;2023-12-20T12:57:56;2.90;;;1.33;;
14992;SDS011;7592;51.088;13.732;2023-12-20T13:02:49;3.27;;;2.00;;
14992;SDS011;7592;51.088;13.732;2023-12-20T13:07:41;5.83;;;1.60;;
14992;SDS011;7592;51.088;13.732;2023-12-20T13:12:37;3.60;;;0.87;;
14992;SDS011;7592;51.088;13.732;2023-12-20T13:17:29;4.40;;;1.03;;
14992;SDS011;7592;51.088;13.732;2023-12-20T13:22:23;3.93;;;1.13;;
14992;SDS011;7592;51.088;13.732;2023-12-20T13:27:16;2.40;;;1.30;;
14992;SDS011;7592;51.088;13.732;2023-12-20T13:32:08;1.47;;;0.80;;
14992;SDS011;7592;51.088;13.732;2023-12-20T13:37:00;2.50;;;1.47;;
14992;SDS011;7592;51.088;13.732;2023-12-20T13:41:53;3.00;;;1.03;;
14992;SDS011;7592;51.088;13.732;2023-12-20T13:46:47;3.37;;;0.90;;
14992;SDS011;7592;51.088;13.732;2023-12-20T13:51:41;3.87;;;1.03;;
14992;SDS011;7592;51.088;13.732;2023-12-20T13:56:34;2.37;;;0.97;;
14992;SDS011;7592;51.088;13.732;2023-12-20T14:01:42;2.27;;;0.90;;
14992;SDS011;7592;51.088;13.732;2023-12-20T14:06:34;2.63;;;0.90;;
14992;SDS011;7592;51.088;13.732;2023-12-20T14:11:26;4.57;;;0.80;;
14992;SDS011;7592;51.088;13.732;2023-12-20T14:16:19;4.23;;;1.13;;
14992;SDS011;7592;51.088;13.732;2023-12-20T14:21:11;4.67;;;1.13;;
14992;SDS011;7592;51.088;13.732;2023-12-20T14:26:03;4.43;;;0.73;;
14992;SDS011;7592;51.088;13.732;2023-12-20T14:30:55;2.77;;;0.97;;
14992;SDS011;7592;51.088;13.732;2023-12-20T14:35:48;3.83;;;2.00;;
14992;SDS011;7592;51.088;13.732;2023-12-20T14:40:40;3.47;;;1.20;;
14992;SDS011;7592;51.088;13.732;2023-12-20T14:45:32;1.67;;;0.93;;
14992;SDS011;7592;51.088;13.732;2023-12-20T14:50:24;3.23;;;1.20;;
14992;SDS011;7592;51.088;13.732;2023-12-20T14:55:17;2.60;;;0.93;;
14992;SDS011;7592;51.088;13.732;2023-12-20T15:00:09;1.50;;;0.80;;
14992;SDS011;7592;51.088;13.732;2023-12-20T15:05:01;3.23;;;1.10;;
14992;SDS011;7592;51.088;13.732;2023-12-20T15:09:53;4.37;;;2.13;;
14992;SDS011;7592;51.088;13.732;2023-12-20T15:14:46;2.87;;;0.97;;
14992;SDS011;7592;51.088;13.732;2023-12-20T15:19:38;6.27;;;3.10;;
14992;SDS011;7592;51.088;13.732;2023-12-20T15:24:30;5.50;;;2.50;;
14992;SDS011;7592;51.088;13.732;2023-12-20T15:29:30;7.07;;;2.70;;
14992;SDS011;7592;51.088;13.732;2023-12-20T15:34:22;4.57;;;2.20;;
14992;SDS011;7592;51.088;13.732;2023-12-20T15:39:14;2.73;;;1.17;;
14992;SDS011;7592;51.088;13.732;2023-12-20T15:44:07;10.07;;;4.20;;
14992;SDS011;7592;51.088;13.732;2023-12-20T15:48:59;2.40;;;2.07;;
14992;SDS011;7592;51.088;13.732;2023-12-20T15:53:52;3.07;;;1.00;;
14992;SDS011;7592;51.088;13.732;2023-12-20T15:58:45;1.97;;;1.30;;
14992;SDS011;7592;51.088;13.732;2023-12-20T16:03:39;1.37;;;1.13;;
14992;SDS011;7592;51.088;13.732;2023-12-20T16:08:41;1.40;;;1.00;;
14992;SDS011;7592;51.088;13.732;2023-12-20T16:13:34;2.17;;;0.80;;
14992;SDS011;7592;51.088;13.732;2023-12-20T16:18:26;2.60;;;0.93;;
14992;SDS011;7592;51.088;13.732;2023-12-20T16:23:20;3.37;;;1.20;;
14992;SDS011;7592;51.088;13.732;2023-12-20T16:28:12;2.30;;;0.70;;
14992;SDS011;7592;51.088;13.732;2023-12-20T16:33:04;5.13;;;1.70;;
14992;SDS011;7592;51.088;13.732;2023-12-20T16:37:56;4.83;;;1.43;;
14992;SDS011;7592;51.088;13.732;2023-12-20T16:42:48;1.87;;;1.20;;
14992;SDS011;7592;51.088;13.732;2023-12-20T16:47:40;4.90;;;1.53;;
14992;SDS011;7592;51.088;13.732;2023-12-20T16:52:33;3.73;;;1.40;;
14992;SDS011;7592;51.088;13.732;2023-12-20T16:57:25;3.03;;;1.00;;
14992;SDS011;7592;51.088;13.732;2023-12-20T17:02:17;1.60;;;0.93;;
14992;SDS011;7592;51.088;13.732;2023-12-20T17:07:09;2.80;;;1.03;;
14992;SDS011;7592;51.088;13.732;2023-12-20T17:12:02;2.03;;;1.07;;
14992;SDS011;7592;51.088;13.732;2023-12-20T17:16:54;2.03;;;1.10;;
14992;SDS011;7592;51.088;13.732;2023-12-20T17:21:47;2.27;;;1.10;;
14992;SDS011;7592;51.088;13.732;2023-12-20T17:26:39;4.17;;;1.30;;
14992;SDS011;7592;51.088;13.732;2023-12-20T17:31:31;3.23;;;1.17;;
14992;SDS011;7592;51.088;13.732;2023-12-20T17:36:23;1.97;;;1.23;;
14992;SDS011;7592;51.088;13.732;2023-12-20T17:41:15;1.50;;;0.90;;
14992;SDS011;7592;51.088;13.732;2023-12-20T17:46:07;3.07;;;1.20;;
14992;SDS011;7592;51.088;13.732;2023-12-20T17:50:59;3.30;;;1.30;;
14992;SDS011;7592;51.088;13.732;2023-12-20T17:55:51;4.80;;;1.57;;
14992;SDS011;7592;51.088;13.732;2023-12-20T18:00:44;5.10;;;1.80;;
14992;SDS011;7592;51.088;13.732;2023-12-20T18:05:37;4.77;;;1.87;;
14992;SDS011;7592;51.088;13.732;2023-12-20T18:10:29;2.40;;;1.43;;
14992;SDS011;7592;51.088;13.732;2023-12-20T18:15:25;6.03;;;2.10;;
14992;SDS011;7592;51.088;13.732;2023-12-20T18:20:18;5.07;;;2.70;;
14992;SDS011;7592;51.088;13.732;2023-12-20T18:25:11;4.27;;;3.50;;
14992;SDS011;7592;51.088;13.732;2023-12-20T18:30:03;3.07;;;1.83;;
14992;SDS011;7592;51.088;13.732;2023-12-20T18:35:07;2.47;;;1.40;;
14992;SDS011;7592;51.088;13.732;2023-12-20T18:40:01;2.70;;;1.80;;
14992;SDS011;7592;51.088;13.732;2023-12-20T18:44:54;5.00;;;2.67;;
14992;SDS011;7592;51.088;13.732;2023-12-20T18:49:47;6.27;;;3.43;;
14992;SDS011;7592;51.088;13.732;2023-12-20T18:54:39;3.37;;;3.03;;
14992;SDS011;7592;51.088;13.732;2023-12-20T18:59:31;4.13;;;2.67;;
14992;SDS011;7592;51.088;13.732;2023-12-20T19:04:23;5.30;;;2.33;;
14992;SDS011;7592;51.088;13.732;2023-12-20T19:09:16;4.60;;;2.53;;
14992;SDS011;7592;51.088;13.732;2023-12-20T19:14:08;7.23;;;4.70;;
14992;SDS011;7592;51.088;13.732;2023-12-20T19:19:03;5.47;;;3.23;;
14992;SDS011;7592;51.088;13.732;2023-12-20T19:23:55;5.63;;;3.17;;
14992;SDS011;7592;51.088;13.732;2023-12-20T19:28:47;4.40;;;2.50;;
14992;SDS011;7592;51.088;13.732;2023-12-20T19:33:40;4.63;;;3.20;;
14992;SDS011;7592;51.088;13.732;2023-12-20T19:38:34;11.43;;;5.30;;
14992;SDS011;7592;51.088;13.732;2023-12-20T19:43:26;6.43;;;4.27;;
14992;SDS011;7592;51.088;13.732;2023-12-20T19:48:19;6.70;;;4.33;;
14992;SDS011;7592;51.088;13.732;2023-12-20T19:53:11;5.07;;;3.80;;
14992;SDS011;7592;51.088;13.732;2023-12-20T19:58:03;8.57;;;4.17;;
14992;SDS011;7592;51.088;13.732;2023-12-20T20:02:55;6.27;;;5.67;;
14992;SDS011;7592;51.088;13.732;2023-12-20T20:07:47;8.37;;;5.70;;
14992;SDS011;7592;51.088;13.732;2023-12-20T20:12:40;9.10;;;6.13;;
14992;SDS011;7592;51.088;13.732;2023-12-20T20:17:32;22.40;;;14.37;;
14992;SDS011;7592;51.088;13.732;2023-12-20T20:22:24;11.23;;;8.27;;
14992;SDS011;7592;51.088;13.732;2023-12-20T20:27:17;7.87;;;5.43;;
14992;SDS011;7592;51.088;13.732;2023-12-20T20:32:10;4.27;;;3.83;;
14992;SDS011;7592;51.088;13.732;2023-12-20T20:37:03;7.00;;;2.60;;
14992;SDS011;7592;51.088;13.732;2023-12-20T20:41:55;7.60;;;3.03;;
14992;SDS011;7592;51.088;13.732;2023-12-20T20:46:47;2.57;;;2.00;;
14992;SDS011;7592;51.088;13.732;2023-12-20T20:51:40;1.53;;;1.40;;
14992;SDS011;7592;51.088;13.732;2023-12-20T20:56:32;4.77;;;3.53;;
14992;SDS011;7592;51.088;13.732;2023-12-20T21:01:25;0.90;;;0.90;;
14992;SDS011;7592;51.088;13.732;2023-12-20T21:06:17;1.17;;;1.10;;
14992;SDS011;7592;51.088;13.732;2023-12-20T21:11:10;0.70;;;0.70;;
14992;SDS011;7592;51.088;13.732;2023-12-20T21:16:02;2.77;;;1.00;;
14992;SDS011;7592;51.088;13.732;2023-12-20T21:20:55;1.90;;;0.70;;
14992;SDS011;7592;51.088;13.732;2023-12-20T21:25:47;0.53;;;0.50;;
14992;SDS011;7592;51.088;13.732;2023-12-20T21:30:39;1.13;;;0.60;;
14992;SDS011;7592;51.088;13.732;2023-12-20T21:35:31;2.57;;;0.80;;
14992;SDS011;7592;51.088;13.732;2023-12-20T21:40:24;1.37;;;0.90;;
14992;SDS011;7592;51.088;13.732;2023-12-20T21:45:16;1.07;;;0.90;;
14992;SDS011;7592;51.088;13.732;2023-12-20T21:50:08;1.53;;;1.27;;
14992;SDS011;7592;51.088;13.732;2023-12-20T21:55:01;1.03;;;0.80;;
14992;SDS011;7592;51.088;13.732;2023-12-20T21:59:54;1.90;;;1.27;;
14992;SDS011;7592;51.088;13.732;2023-12-20T22:04:46;1.47;;;0.80;;
14992;SDS011;7592;51.088;13.732;2023-12-20T22:09:38;2.30;;;0.60;;
14992;SDS011;7592;51.088;13.732;2023-12-20T22:14:31;4.60;;;2.67;;
14992;SDS011;7592;51.088;13.732;2023-12-20T22:19:23;0.60;;;0.60;;
14992;SDS011;7592;51.088;13.732;2023-12-20T22:24:16;0.27;;;0.27;;
14992;SDS011;7592;51.088;13.732;2023-12-20T22:29:08;0.43;;;0.43;;
14992;SDS011;7592;51.088;13.732;2023-12-20T22:34:00;0.40;;;0.40;;
14992;SDS011;7592;51.088;13.732;2023-12-20T22:38:52;1.23;;;0.40;;
14992;SDS011;7592;51.088;13.732;2023-12-20T22:43:44;0.30;;;0.30;;
14992;SDS011;7592;51.088;13.732;2023-12-20T22:48:38;0.50;;;0.50;;
14992;SDS011;7592;51.088;13.732;2023-12-20T22:53:30;0.40;;;0.30;;
14992;SDS011;7592;51.088;13.732;2023-12-20T22:58:22;0.30;;;0.30;;
14992;SDS011;7592;51.088;13.732;2023-12-20T23:03:14;1.27;;;0.30;;
14992;SDS011;7592;51.088;13.732;2023-12-20T23:08:07;0.43;;;0.43;;
14992;SDS011;7592;51.088;13.732;2023-12-20T23:13:01;2.33;;;0.50;;
14992;SDS011;7592;51.088;13.732;2023-12-20T23:17:54;0.23;;;0.23;;
14992;SDS011;7592;51.088;13.732;2023-12-20T23:22:48;1.23;;;0.60;;
14992;SDS011;7592;51.088;13.732;2023-12-20T23:27:40;2.07;;;0.50;;
14992;SDS011;7592;51.088;13.732;2023-12-20T23:32:38;1.27;;;0.43;;
14992;SDS011;7592;51.088;13.732;2023-12-20T23:37:31;1.13;;;0.50;;
14992;SDS011;7592;51.088;13.732;2023-12-20T23:42:23;0.50;;;0.50;;
14992;SDS011;7592;51.088;13.732;2023-12-20T23:47:16;1.87;;;0.60;;
14992;SDS011;7592;51.088;13.732;2023-12-20T23:52:08;1.10;;;0.50;;
14992;SDS011;7592;51.088;13.732;2023-12-20T23:57:01;0.40;;;0.30;;
